Terminal Aerodrome Forecast
Issued by NWS Omaha/Valley, NE

Home | Current Version | Previous Version | Text Only | Print | Product List | Glossary On
Versions: 1 2 3 4 5 6 7 8 9 10 11 12 13 14 15
000
FTUS43 KOAX 251748
TAFOMA
TAF
KOMA 251748Z 2518/2618 17015G25KT P6SM SKC
     FM260300 16012KT P6SM SCT250
     FM261000 16009KT P6SM BKN200
     FM261100 17008KT P6SM VCTS BKN200CB
     FM261200 17006KT P6SM SHRA VCTS BKN090CB=

USA.gov is the U.S. government's official web portal to all federal, state and local government web resources and services.